createdAt,value
2022-12-26T00:01:26.966Z,1.50
2022-12-26T00:03:56.219Z,1.67
2022-12-26T00:06:27.236Z,1.80
2022-12-26T00:08:56.431Z,1.58
2022-12-26T00:11:25.753Z,1.55
2022-12-26T00:14:01.176Z,1.90
2022-12-26T00:16:32.895Z,1.85
2022-12-26T00:19:01.058Z,2.03
2022-12-26T00:21:29.850Z,1.83
2022-12-26T00:24:00.329Z,2.00
2022-12-26T00:26:30.034Z,1.65
2022-12-26T00:29:00.272Z,2.03
2022-12-26T00:31:31.984Z,1.90
2022-12-26T00:34:00.437Z,1.70
2022-12-26T00:36:30.718Z,1.80
2022-12-26T00:39:00.870Z,2.10
2022-12-26T00:41:32.369Z,1.58
2022-12-26T00:44:03.468Z,2.30
2022-12-26T00:46:32.411Z,1.70
2022-12-26T00:49:04.457Z,1.80
2022-12-26T00:51:32.746Z,2.00
2022-12-26T00:54:00.807Z,2.00
2022-12-26T00:56:29.088Z,2.20
2022-12-26T00:58:57.775Z,2.10
2022-12-26T01:01:33.472Z,1.80
2022-12-26T01:04:02.116Z,1.98
2022-12-26T01:06:31.424Z,2.10
2022-12-26T01:09:00.118Z,1.73
2022-12-26T01:11:44.032Z,1.65
2022-12-26T01:14:15.945Z,2.08
2022-12-26T01:16:47.331Z,1.60
2022-12-26T01:19:15.975Z,2.10
2022-12-26T01:21:44.595Z,2.10
2022-12-26T01:24:15.488Z,1.42
2022-12-26T01:26:43.666Z,2.03
2022-12-26T01:29:11.975Z,1.75
2022-12-26T01:31:40.040Z,2.10
2022-12-26T01:34:09.473Z,1.42
2022-12-26T01:36:37.724Z,1.98
2022-12-26T01:39:05.678Z,1.30
2022-12-26T01:41:34.016Z,1.33
2022-12-26T01:44:05.457Z,1.60
2022-12-26T01:46:39.229Z,1.55
2022-12-26T01:49:15.089Z,1.70
2022-12-26T01:51:48.007Z,1.40
2022-12-26T01:54:39.122Z,1.50
2022-12-26T01:57:10.460Z,1.50
2022-12-26T01:59:41.729Z,1.40
2022-12-26T02:02:11.875Z,1.55
2022-12-26T02:05:04.771Z,1.40
2022-12-26T02:07:35.364Z,1.37
2022-12-26T02:10:05.271Z,1.33
2022-12-26T02:12:38.888Z,1.62
2022-12-26T02:15:12.785Z,1.70
2022-12-26T02:17:41.768Z,1.08
2022-12-26T02:20:20.356Z,1.40
2022-12-26T02:23:26.990Z,1.02
2022-12-26T02:26:21.773Z,1.17
2022-12-26T02:29:13.636Z,1.20
2022-12-26T02:31:56.143Z,1.62
2022-12-26T02:34:31.678Z,1.37
2022-12-26T02:37:14.335Z,1.30
2022-12-26T02:40:04.028Z,1.17
2022-12-26T02:42:43.026Z,1.10
2022-12-26T02:45:32.528Z,1.40
2022-12-26T02:48:13.517Z,1.27
2022-12-26T02:51:14.815Z,1.23
2022-12-26T02:54:09.861Z,1.55
2022-12-26T02:57:00.471Z,1.25
2022-12-26T02:59:57.573Z,1.17
2022-12-26T03:02:51.273Z,1.40
2022-12-26T03:05:44.572Z,1.40
2022-12-26T03:08:37.345Z,1.20
2022-12-26T03:11:23.779Z,1.30
2022-12-26T03:13:52.376Z,1.10
2022-12-26T03:16:43.660Z,1.55
2022-12-26T03:19:15.192Z,1.30
2022-12-26T03:21:46.851Z,1.30
2022-12-26T03:24:18.180Z,1.00
2022-12-26T03:26:51.831Z,1.15
2022-12-26T03:29:40.557Z,1.40
2022-12-26T03:32:10.708Z,1.45
2022-12-26T03:34:42.906Z,1.23
2022-12-26T03:37:48.705Z,1.05
2022-12-26T03:40:48.744Z,1.05
2022-12-26T03:43:44.564Z,1.08
2022-12-26T03:46:36.321Z,1.00
2022-12-26T03:49:28.603Z,1.45
2022-12-26T03:52:20.332Z,1.23
2022-12-26T03:55:13.079Z,1.23
2022-12-26T03:58:06.803Z,1.40
2022-12-26T04:00:55.300Z,1.10
2022-12-26T04:03:44.336Z,1.30
2022-12-26T04:06:37.032Z,1.37
2022-12-26T04:09:28.973Z,1.40
2022-12-26T04:12:18.862Z,1.25
2022-12-26T04:15:11.467Z,1.20
2022-12-26T04:18:03.506Z,1.05
2022-12-26T04:20:37.964Z,0.93
2022-12-26T04:23:28.327Z,1.00
2022-12-26T04:26:21.077Z,1.40
2022-12-26T04:29:09.006Z,1.20
2022-12-26T04:32:01.622Z,1.42
2022-12-26T04:34:54.245Z,1.30
2022-12-26T04:37:44.890Z,1.05
2022-12-26T04:40:38.816Z,1.27
2022-12-26T04:43:47.461Z,1.02
2022-12-26T04:46:18.589Z,1.30
2022-12-26T04:49:07.100Z,1.17
2022-12-26T04:51:35.619Z,1.20
2022-12-26T04:54:04.191Z,1.10
2022-12-26T04:56:32.464Z,0.95
2022-12-26T04:59:00.554Z,1.33
2022-12-26T05:01:47.629Z,1.20
2022-12-26T05:04:34.426Z,1.33
2022-12-26T05:07:18.473Z,1.00
2022-12-26T05:09:49.131Z,1.30
2022-12-26T05:12:17.826Z,1.10
2022-12-26T05:14:45.992Z,1.20
2022-12-26T05:17:33.491Z,1.12
2022-12-26T05:20:19.486Z,1.80
2022-12-26T05:23:07.252Z,1.20
2022-12-26T05:25:58.771Z,1.35
2022-12-26T05:28:42.710Z,0.93
2022-12-26T05:31:12.719Z,1.20
2022-12-26T05:34:00.257Z,1.10
2022-12-26T05:36:32.015Z,1.20
2022-12-26T05:39:00.660Z,1.27
2022-12-26T05:41:28.930Z,1.15
2022-12-26T05:43:56.870Z,1.23
2022-12-26T05:46:24.922Z,1.30
2022-12-26T05:48:54.603Z,1.80
2022-12-26T05:51:22.816Z,1.30
2022-12-26T05:53:51.698Z,1.05
2022-12-26T05:56:22.614Z,1.35
2022-12-26T05:58:55.322Z,1.25
2022-12-26T06:01:23.975Z,1.35
2022-12-26T06:03:55.450Z,1.37
2022-12-26T06:06:25.799Z,1.20
2022-12-26T06:08:56.808Z,0.95
2022-12-26T06:11:26.647Z,1.37
2022-12-26T06:13:55.818Z,1.10
2022-12-26T06:16:24.400Z,1.00
2022-12-26T06:18:54.907Z,1.10
2022-12-26T06:21:24.167Z,1.37
2022-12-26T06:23:52.236Z,1.27
2022-12-26T06:26:20.217Z,1.23
2022-12-26T06:28:48.599Z,1.20
2022-12-26T06:31:20.849Z,1.02
2022-12-26T06:33:50.618Z,1.25
2022-12-26T06:36:22.173Z,1.20
2022-12-26T06:38:51.462Z,1.15
2022-12-26T06:41:21.390Z,1.58
2022-12-26T06:43:49.945Z,1.20
2022-12-26T06:46:21.334Z,1.42
2022-12-26T06:48:49.577Z,1.30
2022-12-26T06:51:21.261Z,1.12
2022-12-26T06:53:49.686Z,1.15
2022-12-26T06:56:20.199Z,1.67
2022-12-26T06:58:48.754Z,1.02
2022-12-26T07:01:19.124Z,1.30
2022-12-26T07:03:51.873Z,0.90
2022-12-26T07:06:25.609Z,1.45
2022-12-26T07:08:54.706Z,1.02
2022-12-26T07:11:25.230Z,1.40
2022-12-26T07:13:57.101Z,1.30
2022-12-26T07:16:26.173Z,1.33
2022-12-26T07:18:55.262Z,0.90
2022-12-26T07:21:26.439Z,1.20
2022-12-26T07:23:56.058Z,1.10
2022-12-26T07:26:25.118Z,1.33
2022-12-26T07:28:54.994Z,1.30
2022-12-26T07:31:25.187Z,1.30
2022-12-26T07:33:54.693Z,1.23
2022-12-26T07:36:25.112Z,1.33
2022-12-26T07:38:53.560Z,1.50
2022-12-26T07:41:39.071Z,1.48
2022-12-26T07:44:08.001Z,0.90
2022-12-26T07:46:36.402Z,1.70
2022-12-26T07:49:05.680Z,1.27
2022-12-26T07:51:35.608Z,1.45
2022-12-26T07:54:10.468Z,1.83
2022-12-26T07:56:39.708Z,1.67
2022-12-26T07:59:07.988Z,1.62
2022-12-26T08:01:36.204Z,1.55
2022-12-26T08:04:04.961Z,1.80
2022-12-26T08:06:33.140Z,1.30
2022-12-26T08:09:02.603Z,1.02
2022-12-26T08:11:33.734Z,1.50
2022-12-26T08:14:02.198Z,1.75
2022-12-26T08:16:32.104Z,1.37
2022-12-26T08:19:03.882Z,1.45
2022-12-26T08:21:32.660Z,1.70
2022-12-26T08:24:20.131Z,1.60
2022-12-26T08:27:05.575Z,1.70
2022-12-26T08:29:40.478Z,1.85
2022-12-26T08:32:13.684Z,1.42
2022-12-26T08:34:48.767Z,1.45
2022-12-26T08:37:36.134Z,1.30
2022-12-26T08:40:07.548Z,1.40
2022-12-26T08:43:11.784Z,1.25
2022-12-26T08:45:39.496Z,1.30
2022-12-26T08:48:26.462Z,1.30
2022-12-26T08:51:00.914Z,1.00
2022-12-26T08:53:42.070Z,1.20
2022-12-26T08:56:15.269Z,1.50
2022-12-26T08:58:44.628Z,1.55
2022-12-26T09:01:22.144Z,1.65
2022-12-26T09:03:55.249Z,1.30
2022-12-26T09:06:23.867Z,1.27
2022-12-26T09:08:52.561Z,1.10
2022-12-26T09:11:26.725Z,1.30
2022-12-26T09:13:56.371Z,1.00
2022-12-26T09:16:30.456Z,1.37
2022-12-26T09:19:02.549Z,1.42
2022-12-26T09:21:32.030Z,1.00
2022-12-26T09:24:01.661Z,1.15
2022-12-26T09:26:31.488Z,0.98
2022-12-26T09:29:00.679Z,0.98
2022-12-26T09:31:31.135Z,1.00
2022-12-26T09:34:00.318Z,1.30
2022-12-26T09:36:32.067Z,1.25
2022-12-26T09:39:01.216Z,0.90
2022-12-26T09:41:44.583Z,1.10
2022-12-26T09:44:18.923Z,0.88
2022-12-26T09:46:57.573Z,1.02
2022-12-26T09:49:30.976Z,1.00
2022-12-26T09:52:03.189Z,1.42
2022-12-26T09:54:35.821Z,1.23
2022-12-26T09:57:15.277Z,1.00
2022-12-26T09:59:48.650Z,1.00
2022-12-26T10:02:20.741Z,1.05
2022-12-26T10:04:49.542Z,1.40
2022-12-26T10:07:26.562Z,1.20
2022-12-26T10:10:09.135Z,0.90
2022-12-26T10:12:43.577Z,0.88
2022-12-26T10:15:32.155Z,1.40
2022-12-26T10:18:13.243Z,1.42
2022-12-26T10:20:55.341Z,1.27
2022-12-26T10:23:43.895Z,1.17
2022-12-26T10:26:15.464Z,1.00
2022-12-26T10:28:48.660Z,1.20
2022-12-26T10:31:22.106Z,0.93
2022-12-26T10:33:57.445Z,1.00
2022-12-26T10:36:33.622Z,1.27
2022-12-26T10:39:04.264Z,1.20
2022-12-26T10:41:38.928Z,1.05
2022-12-26T10:44:11.574Z,1.08
2022-12-26T10:47:15.371Z,0.95
2022-12-26T10:49:45.999Z,0.60
2022-12-26T10:52:15.389Z,0.47
2022-12-26T10:54:43.592Z,0.55
2022-12-26T10:57:11.602Z,0.50
2022-12-26T10:59:46.342Z,0.70
2022-12-26T11:02:23.598Z,0.88
2022-12-26T11:05:33.438Z,0.50
2022-12-26T11:07:53.165Z,0.47
2022-12-26T11:10:25.543Z,0.55
2022-12-26T11:12:55.627Z,0.52
2022-12-26T11:15:32.272Z,0.55
2022-12-26T11:18:18.385Z,0.62
2022-12-26T11:20:47.763Z,0.60
2022-12-26T11:23:25.717Z,0.20
2022-12-26T11:25:56.265Z,0.60
2022-12-26T11:28:31.863Z,0.30
2022-12-26T11:31:03.211Z,0.40
2022-12-26T11:33:34.711Z,0.43
2022-12-26T11:36:09.551Z,0.20
2022-12-26T11:38:49.517Z,0.40
2022-12-26T11:41:32.868Z,0.20
2022-12-26T11:44:12.702Z,0.22
2022-12-26T11:46:45.605Z,0.47
2022-12-26T11:49:20.320Z,0.30
2022-12-26T11:51:55.639Z,0.20
2022-12-26T11:54:34.318Z,0.30
2022-12-26T11:57:20.420Z,0.30
2022-12-26T11:59:50.062Z,0.47
2022-12-26T12:02:25.302Z,0.40
2022-12-26T12:04:56.453Z,0.40
2022-12-26T12:07:47.544Z,0.60
2022-12-26T12:10:49.188Z,0.40
2022-12-26T12:13:28.688Z,0.55
2022-12-26T12:16:07.069Z,0.30
2022-12-26T12:18:50.670Z,0.30
2022-12-26T12:21:29.053Z,0.20
2022-12-26T12:24:14.246Z,0.62
2022-12-26T12:26:54.859Z,0.60
2022-12-26T12:29:40.098Z,0.20
2022-12-26T12:32:13.912Z,0.35
2022-12-26T12:34:58.764Z,0.45
2022-12-26T12:37:39.520Z,0.40
2022-12-26T12:40:23.978Z,0.40
2022-12-26T12:42:59.073Z,0.25
2022-12-26T12:45:32.647Z,0.30
2022-12-26T12:48:29.023Z,0.52
2022-12-26T12:51:08.986Z,0.52
2022-12-26T12:53:55.146Z,0.30
2022-12-26T12:56:38.357Z,0.10
2022-12-26T12:59:21.001Z,0.40
2022-12-26T13:01:54.142Z,0.30
2022-12-26T13:04:27.165Z,0.22
2022-12-26T13:07:00.794Z,0.25
2022-12-26T13:09:37.890Z,0.20
2022-12-26T13:12:09.547Z,0.40
2022-12-26T13:14:42.262Z,0.32
2022-12-26T13:17:23.491Z,0.30
2022-12-26T13:20:02.335Z,0.37
2022-12-26T13:22:50.727Z,0.35
2022-12-26T13:25:21.041Z,0.60
2022-12-26T13:27:52.399Z,0.20
2022-12-26T13:30:20.785Z,0.30
2022-12-26T13:32:49.468Z,0.22
2022-12-26T13:35:52.287Z,0.20
2022-12-26T13:38:23.417Z,0.30
2022-12-26T13:41:17.811Z,0.50
2022-12-26T13:44:00.696Z,0.50
2022-12-26T13:46:53.874Z,0.50
2022-12-26T13:49:36.045Z,0.50
2022-12-26T13:52:26.343Z,0.20
2022-12-26T13:55:31.040Z,0.10
2022-12-26T13:58:30.769Z,0.35
2022-12-26T14:01:07.418Z,0.40
2022-12-26T14:03:50.450Z,0.55
2022-12-26T14:06:41.716Z,0.30
2022-12-26T14:09:21.778Z,0.30
2022-12-26T14:12:20.860Z,0.30
2022-12-26T14:15:06.756Z,0.22
2022-12-26T14:17:43.974Z,0.20
2022-12-26T14:20:23.779Z,0.20
2022-12-26T14:23:03.827Z,0.30
2022-12-26T14:25:43.627Z,0.40
2022-12-26T14:28:24.369Z,0.30
2022-12-26T14:31:06.435Z,0.28
2022-12-26T14:33:41.169Z,0.20
2022-12-26T14:36:22.273Z,0.10
2022-12-26T14:38:56.467Z,0.40
2022-12-26T14:42:26.944Z,0.30
2022-12-26T14:44:59.723Z,0.30
2022-12-26T14:47:41.636Z,0.30
2022-12-26T14:50:45.114Z,0.40
2022-12-26T14:53:31.024Z,0.40
2022-12-26T14:56:00.853Z,0.55
2022-12-26T14:58:48.042Z,0.50
2022-12-26T15:01:48.756Z,0.20
2022-12-26T15:04:37.114Z,0.40
2022-12-26T15:07:37.384Z,0.37
2022-12-26T15:10:43.505Z,1.30
2022-12-26T15:13:44.158Z,0.57
2022-12-26T15:16:26.453Z,0.90
2022-12-26T15:19:30.188Z,0.80
2022-12-26T15:22:25.668Z,0.82
2022-12-26T15:25:26.188Z,0.40
2022-12-26T15:28:20.334Z,0.65
2022-12-26T15:31:08.026Z,0.60
2022-12-26T15:33:41.686Z,0.57
2022-12-26T15:36:22.274Z,0.50
2022-12-26T15:38:57.386Z,0.50
2022-12-26T15:41:36.505Z,0.30
2022-12-26T15:44:19.719Z,0.57
2022-12-26T15:46:58.386Z,0.50
2022-12-26T15:49:49.797Z,0.65
2022-12-26T15:52:28.057Z,0.60
2022-12-26T15:55:26.521Z,0.60
2022-12-26T15:58:01.736Z,0.60
2022-12-26T16:00:33.231Z,0.90
2022-12-26T16:03:15.352Z,0.50
2022-12-26T16:05:52.940Z,0.50
2022-12-26T16:08:58.254Z,0.32
2022-12-26T16:11:31.276Z,0.50
2022-12-26T16:14:02.818Z,0.30
2022-12-26T16:16:34.597Z,0.50
2022-12-26T16:19:19.263Z,0.70
2022-12-26T16:22:16.341Z,0.60
2022-12-26T16:24:47.691Z,0.50
2022-12-26T16:27:18.951Z,0.75
2022-12-26T16:29:49.976Z,0.50
2022-12-26T16:32:21.027Z,0.90
2022-12-26T16:34:50.278Z,0.80
2022-12-26T16:37:21.172Z,0.70
2022-12-26T16:40:15.918Z,0.82
2022-12-26T16:42:46.098Z,0.52
2022-12-26T16:45:18.741Z,0.95
2022-12-26T16:47:47.790Z,1.35
2022-12-26T16:50:19.781Z,1.65
2022-12-26T16:52:50.912Z,1.00
2022-12-26T16:55:36.707Z,2.58
2022-12-26T16:58:14.356Z,1.02
2022-12-26T17:00:49.860Z,0.80
2022-12-26T17:03:28.585Z,0.70
2022-12-26T17:05:57.336Z,0.82
2022-12-26T17:08:26.114Z,0.65
2022-12-26T17:10:55.611Z,0.45
2022-12-26T17:13:27.588Z,0.73
2022-12-26T17:15:59.096Z,0.90
2022-12-26T17:18:40.423Z,0.82
2022-12-26T17:21:28.974Z,0.80
2022-12-26T17:24:12.524Z,0.88
2022-12-26T17:26:43.646Z,0.80
2022-12-26T17:29:37.978Z,0.68
2022-12-26T17:32:09.733Z,0.70
2022-12-26T17:34:40.687Z,1.00
2022-12-26T17:37:21.809Z,1.00
2022-12-26T17:40:02.421Z,1.30
2022-12-26T17:42:42.007Z,1.02
2022-12-26T17:45:15.425Z,1.00
2022-12-26T17:47:43.573Z,1.00
2022-12-26T17:50:12.407Z,0.93
2022-12-26T17:52:40.986Z,0.80
2022-12-26T17:55:16.620Z,0.62
2022-12-26T17:57:46.436Z,0.50
2022-12-26T18:00:20.588Z,0.80
2022-12-26T18:02:49.149Z,0.40
2022-12-26T18:05:18.109Z,0.52
2022-12-26T18:07:47.411Z,0.30
2022-12-26T18:10:19.520Z,0.35
2022-12-26T18:12:49.300Z,0.40
2022-12-26T18:15:19.344Z,0.50
2022-12-26T18:17:50.304Z,0.40
2022-12-26T18:20:26.952Z,0.60
2022-12-26T18:22:56.075Z,0.40
2022-12-26T18:25:27.817Z,0.60
2022-12-26T18:27:57.423Z,0.80
2022-12-26T18:30:27.864Z,0.70
2022-12-26T18:32:59.187Z,0.70
2022-12-26T18:35:33.344Z,0.73
2022-12-26T18:38:05.386Z,0.85
2022-12-26T18:40:36.440Z,1.25
2022-12-26T18:43:07.697Z,1.00
2022-12-26T18:45:37.874Z,0.88
2022-12-26T18:48:07.199Z,0.90
2022-12-26T18:50:36.704Z,0.80
2022-12-26T18:53:04.790Z,1.10
2022-12-26T18:55:33.079Z,0.65
2022-12-26T18:58:01.361Z,0.80
2022-12-26T19:00:31.378Z,0.45
2022-12-26T19:02:59.289Z,0.90
2022-12-26T19:05:31.134Z,0.70
2022-12-26T19:07:59.998Z,0.70
2022-12-26T19:10:30.563Z,0.98
2022-12-26T19:13:05.641Z,0.77
2022-12-26T19:15:36.955Z,0.57
2022-12-26T19:18:05.912Z,0.73
2022-12-26T19:20:39.015Z,0.90
2022-12-26T19:23:10.417Z,0.57
2022-12-26T19:25:38.644Z,0.65
2022-12-26T19:28:06.592Z,0.50
2022-12-26T19:30:39.057Z,0.52
2022-12-26T19:33:07.938Z,0.77
2022-12-26T19:35:36.088Z,0.50
2022-12-26T19:38:04.147Z,0.60
2022-12-26T19:40:32.457Z,0.50
2022-12-26T19:43:00.516Z,0.52
2022-12-26T19:45:28.567Z,0.73
2022-12-26T19:47:58.456Z,1.00
2022-12-26T19:50:26.555Z,0.75
2022-12-26T19:52:54.475Z,0.65
2022-12-26T19:55:23.080Z,0.43
2022-12-26T19:57:51.081Z,1.30
2022-12-26T20:00:20.689Z,0.80
2022-12-26T20:02:49.178Z,0.65
2022-12-26T20:05:18.656Z,0.52
2022-12-26T20:07:46.672Z,0.50
2022-12-26T20:10:15.042Z,0.93
2022-12-26T20:12:43.131Z,0.70
2022-12-26T20:15:11.634Z,0.80
2022-12-26T20:17:40.104Z,0.52
2022-12-26T20:20:08.838Z,0.80
2022-12-26T20:22:38.347Z,0.57
2022-12-26T20:25:09.925Z,0.52
2022-12-26T20:27:37.983Z,1.00
2022-12-26T20:30:08.131Z,0.60
2022-12-26T20:32:36.492Z,0.52
2022-12-26T20:35:04.988Z,0.60
2022-12-26T20:37:33.293Z,0.60
2022-12-26T20:40:02.659Z,0.62
2022-12-26T20:42:30.627Z,0.70
2022-12-26T20:44:58.844Z,0.60
2022-12-26T20:47:26.821Z,1.05
2022-12-26T20:49:54.724Z,1.12
2022-12-26T20:52:22.930Z,0.50
2022-12-26T20:54:50.876Z,0.40
2022-12-26T20:57:20.214Z,0.60
2022-12-26T20:59:48.810Z,0.70
2022-12-26T21:02:17.164Z,0.60
2022-12-26T21:04:45.285Z,0.43
2022-12-26T21:07:13.567Z,0.85
2022-12-26T21:09:46.225Z,0.43
2022-12-26T21:12:15.110Z,0.70
2022-12-26T21:14:44.524Z,0.90
2022-12-26T21:17:17.984Z,0.40
2022-12-26T21:19:46.565Z,0.68
2022-12-26T21:22:14.537Z,0.52
2022-12-26T21:24:42.697Z,0.88
2022-12-26T21:27:11.028Z,0.90
2022-12-26T21:29:40.167Z,0.45
2022-12-26T21:32:09.511Z,1.10
2022-12-26T21:34:38.971Z,1.08
2022-12-26T21:37:24.566Z,1.42
2022-12-26T21:39:52.831Z,0.50
2022-12-26T21:42:20.911Z,0.50
2022-12-26T21:44:49.202Z,0.47
2022-12-26T21:47:19.059Z,0.52
2022-12-26T21:49:47.131Z,1.10
2022-12-26T21:52:15.187Z,0.60
2022-12-26T21:55:01.193Z,0.57
2022-12-26T21:57:30.667Z,0.80
2022-12-26T21:59:59.736Z,1.00
2022-12-26T22:02:49.428Z,0.65
2022-12-26T22:05:20.492Z,1.27
2022-12-26T22:07:49.330Z,1.00
2022-12-26T22:10:32.091Z,0.80
2022-12-26T22:13:00.988Z,1.05
2022-12-26T22:15:46.956Z,0.85
2022-12-26T22:18:16.562Z,0.90
2022-12-26T22:20:46.113Z,0.95
2022-12-26T22:23:14.398Z,1.02
2022-12-26T22:25:42.492Z,0.85
2022-12-26T22:28:11.362Z,1.48
2022-12-26T22:30:39.374Z,0.65
2022-12-26T22:33:07.290Z,0.57
2022-12-26T22:35:37.099Z,0.47
2022-12-26T22:38:05.224Z,1.25
2022-12-26T22:40:33.232Z,1.05
2022-12-26T22:43:01.512Z,0.75
2022-12-26T22:45:29.822Z,0.90
2022-12-26T22:47:57.901Z,1.50
2022-12-26T22:50:26.391Z,1.55
2022-12-26T22:52:55.783Z,1.02
2022-12-26T22:55:23.767Z,0.75
2022-12-26T22:57:53.087Z,0.82
2022-12-26T23:00:22.332Z,1.08
2022-12-26T23:02:50.672Z,0.30
2022-12-26T23:05:19.679Z,1.67
2022-12-26T23:07:48.239Z,0.35
2022-12-26T23:10:22.250Z,0.85
2022-12-26T23:12:51.951Z,0.60
2022-12-26T23:15:22.300Z,0.82
2022-12-26T23:18:17.857Z,0.80
2022-12-26T23:21:04.068Z,1.25
2022-12-26T23:23:32.873Z,0.80
2022-12-26T23:26:02.589Z,1.05
2022-12-26T23:28:48.169Z,0.50
2022-12-26T23:31:16.643Z,0.90
2022-12-26T23:33:44.846Z,0.88
2022-12-26T23:36:13.052Z,0.45
2022-12-26T23:38:41.418Z,0.30
2022-12-26T23:41:10.907Z,0.98
2022-12-26T23:43:39.247Z,0.55
2022-12-26T23:46:10.791Z,0.70
2022-12-26T23:48:39.066Z,0.25
2022-12-26T23:51:09.246Z,0.73
2022-12-26T23:53:37.741Z,0.52
2022-12-26T23:56:08.666Z,0.80
2022-12-26T23:58:40.114Z,0.45
